createdAt,value
2022-09-21T00:00:28.364Z,70.81
2022-09-21T00:01:31.350Z,69.78
2022-09-21T00:02:33.089Z,70.71
2022-09-21T00:03:35.456Z,70.71
2022-09-21T00:04:36.992Z,70.00
2022-09-21T00:05:38.519Z,69.58
2022-09-21T00:06:40.098Z,68.97
2022-09-21T00:07:41.620Z,69.57
2022-09-21T00:08:44.430Z,69.67
2022-09-21T00:09:46.775Z,69.77
2022-09-21T00:10:50.264Z,69.66
2022-09-21T00:11:57.589Z,68.80
2022-09-21T00:13:02.991Z,68.85
2022-09-21T00:14:10.539Z,69.02
2022-09-21T00:15:12.183Z,69.31
2022-09-21T00:16:17.124Z,69.01
2022-09-21T00:17:18.737Z,69.10
2022-09-21T00:18:20.256Z,69.18
2022-09-21T00:19:22.147Z,68.60
2022-09-21T00:20:25.060Z,68.39
2022-09-21T00:21:27.968Z,68.54
2022-09-21T00:22:29.507Z,68.15
2022-09-21T00:23:31.033Z,68.36
2022-09-21T00:24:35.122Z,67.72
2022-09-21T00:25:36.684Z,67.72
2022-09-21T00:26:38.216Z,67.52
2022-09-21T00:27:40.204Z,67.54
2022-09-21T00:28:42.329Z,67.56
2022-09-21T00:29:43.839Z,66.83
2022-09-21T00:30:45.855Z,67.28
2022-09-21T00:31:47.434Z,67.38
2022-09-21T00:32:49.081Z,67.48
2022-09-21T00:33:51.723Z,67.52
2022-09-21T00:34:53.609Z,67.47
2022-09-21T00:35:55.124Z,67.31
2022-09-21T00:36:56.661Z,67.03
2022-09-21T00:38:01.465Z,67.32
2022-09-21T00:39:03.665Z,67.17
2022-09-21T00:40:05.624Z,67.38
2022-09-21T00:41:09.045Z,67.19
2022-09-21T00:42:13.851Z,67.62
2022-09-21T00:43:17.292Z,67.55
2022-09-21T00:44:32.364Z,67.91
2022-09-21T00:45:34.018Z,68.41
2022-09-21T00:46:37.447Z,67.39
2022-09-21T00:47:42.208Z,67.82
2022-09-21T00:48:44.929Z,68.04
2022-09-21T00:49:50.143Z,69.60
2022-09-21T00:50:57.209Z,71.18
2022-09-21T00:52:02.081Z,72.63
2022-09-21T00:53:04.732Z,72.15
2022-09-21T00:54:14.686Z,72.04
2022-09-21T00:55:22.255Z,70.87
2022-09-21T00:56:24.313Z,70.33
2022-09-21T00:57:30.960Z,70.12
2022-09-21T00:58:43.926Z,70.14
2022-09-21T00:59:45.646Z,69.69
2022-09-21T01:00:47.244Z,69.59
2022-09-21T01:01:48.941Z,69.67
2022-09-21T01:02:51.384Z,69.75
2022-09-21T01:03:56.344Z,69.80
2022-09-21T01:04:58.559Z,69.55
2022-09-21T01:06:00.212Z,70.21
2022-09-21T01:07:05.724Z,70.02
2022-09-21T01:08:12.286Z,70.54
2022-09-21T01:09:16.054Z,70.46
2022-09-21T01:10:19.370Z,70.12
2022-09-21T01:11:42.567Z,70.23
2022-09-21T01:12:59.536Z,70.17
2022-09-21T01:14:30.927Z,70.40
2022-09-21T01:15:53.414Z,70.94
2022-09-21T01:17:12.239Z,71.45
2022-09-21T01:18:21.056Z,71.06
2022-09-21T01:19:41.018Z,71.02
2022-09-21T01:21:24.205Z,71.03
2022-09-21T01:22:28.708Z,70.61
2022-09-21T01:23:48.729Z,70.77
2022-09-21T01:25:11.270Z,70.83
2022-09-21T01:26:39.218Z,70.85
2022-09-21T01:27:51.674Z,70.31
2022-09-21T01:29:10.532Z,69.91
2022-09-21T01:30:18.413Z,69.89
2022-09-21T01:31:27.055Z,69.82
2022-09-21T01:32:32.862Z,69.68
2022-09-21T01:33:51.372Z,69.45
2022-09-21T01:35:00.636Z,68.89
2022-09-21T01:36:09.856Z,69.84
2022-09-21T01:37:17.940Z,70.17
2022-09-21T01:38:28.120Z,69.83
2022-09-21T01:39:31.066Z,69.94
2022-09-21T01:40:43.615Z,69.70
2022-09-21T01:41:48.013Z,69.98
2022-09-21T01:42:51.429Z,70.81
2022-09-21T01:43:57.315Z,70.41
2022-09-21T01:45:03.173Z,70.23
2022-09-21T01:46:07.979Z,70.68
2022-09-21T01:47:12.672Z,69.78
2022-09-21T01:48:15.556Z,70.03
2022-09-21T01:49:23.029Z,70.08
2022-09-21T01:50:28.286Z,70.13
2022-09-21T01:51:31.213Z,70.04
2022-09-21T01:52:49.236Z,69.96
2022-09-21T01:53:53.636Z,69.98
2022-09-21T01:55:00.828Z,70.09
2022-09-21T01:56:13.376Z,70.02
2022-09-21T01:57:19.157Z,70.37
2022-09-21T01:58:43.103Z,70.83
2022-09-21T01:59:54.233Z,70.54
2022-09-21T02:00:58.203Z,72.16
2022-09-21T02:02:12.337Z,71.86
2022-09-21T02:03:29.441Z,71.68
2022-09-21T02:04:31.335Z,71.58
2022-09-21T02:05:33.819Z,70.71
2022-09-21T02:06:35.941Z,70.66
2022-09-21T02:07:39.583Z,70.18
2022-09-21T02:08:41.297Z,70.76
2022-09-21T02:09:43.040Z,69.98
2022-09-21T02:10:52.641Z,70.15
2022-09-21T02:11:54.159Z,70.32
2022-09-21T02:13:00.950Z,69.70
2022-09-21T02:14:03.264Z,69.39
2022-09-21T02:15:05.366Z,69.16
2022-09-21T02:16:06.901Z,68.99
2022-09-21T02:17:35.729Z,69.02
2022-09-21T02:18:47.220Z,69.08
2022-09-21T02:19:52.431Z,69.46
2022-09-21T02:20:59.476Z,69.71
2022-09-21T02:22:13.110Z,69.84
2022-09-21T02:23:29.258Z,69.44
2022-09-21T02:24:41.452Z,69.90
2022-09-21T02:26:06.745Z,69.25
2022-09-21T02:27:33.701Z,69.64
2022-09-21T02:28:50.058Z,69.30
2022-09-21T02:30:13.979Z,69.24
2022-09-21T02:31:54.725Z,69.19
2022-09-21T02:33:08.847Z,69.01
2022-09-21T02:34:30.839Z,69.21
2022-09-21T02:36:12.825Z,69.86
2022-09-21T02:37:25.147Z,69.02
2022-09-21T02:38:29.480Z,69.43
2022-09-21T02:39:54.122Z,69.43
2022-09-21T02:41:06.431Z,68.94
2022-09-21T02:42:12.379Z,69.24
2022-09-21T02:43:27.982Z,69.13
2022-09-21T02:45:00.808Z,69.13
2022-09-21T02:46:08.515Z,68.85
2022-09-21T02:47:22.012Z,69.07
2022-09-21T02:48:34.340Z,68.92
2022-09-21T02:49:41.085Z,68.84
2022-09-21T02:50:50.972Z,68.60
2022-09-21T02:51:57.834Z,69.09
2022-09-21T02:53:02.066Z,68.70
2022-09-21T02:54:08.488Z,68.81
2022-09-21T02:55:13.283Z,68.56
2022-09-21T02:56:16.028Z,69.29
2022-09-21T02:57:20.276Z,68.92
2022-09-21T02:58:24.499Z,68.80
2022-09-21T02:59:27.493Z,68.56
2022-09-21T03:00:29.486Z,68.69
2022-09-21T03:01:33.085Z,68.68
2022-09-21T03:02:43.717Z,68.65
2022-09-21T03:03:45.226Z,68.28
2022-09-21T03:04:48.960Z,69.11
2022-09-21T03:05:54.308Z,68.99
2022-09-21T03:06:56.901Z,68.78
2022-09-21T03:07:58.972Z,69.02
2022-09-21T03:09:00.813Z,68.80
2022-09-21T03:10:02.446Z,68.78
2022-09-21T03:11:04.038Z,68.61
2022-09-21T03:12:05.881Z,68.20
2022-09-21T03:13:11.343Z,68.63
2022-09-21T03:14:12.903Z,69.19
2022-09-21T03:15:16.608Z,69.18
2022-09-21T03:16:18.529Z,69.20
2022-09-21T03:17:20.156Z,69.44
2022-09-21T03:18:21.806Z,69.33
2022-09-21T03:19:23.316Z,69.62
2022-09-21T03:20:25.325Z,69.43
2022-09-21T03:21:27.224Z,69.66
2022-09-21T03:22:28.788Z,69.55
2022-09-21T03:23:30.853Z,69.30
2022-09-21T03:24:47.439Z,69.45
2022-09-21T03:25:50.127Z,69.63
2022-09-21T03:26:51.806Z,70.69
2022-09-21T03:27:53.895Z,71.16
2022-09-21T03:28:55.641Z,71.54
2022-09-21T03:30:01.280Z,71.02
2022-09-21T03:31:03.811Z,71.34
2022-09-21T03:32:05.622Z,72.78
2022-09-21T03:33:08.307Z,73.04
2022-09-21T03:34:11.395Z,72.94
2022-09-21T03:35:13.977Z,73.34
2022-09-21T03:36:15.578Z,72.59
2022-09-21T03:37:17.201Z,72.52
2022-09-21T03:38:21.135Z,72.78
2022-09-21T03:39:22.648Z,72.29
2022-09-21T03:40:26.709Z,72.41
2022-09-21T03:41:28.253Z,72.03
2022-09-21T03:42:29.752Z,72.31
2022-09-21T03:43:31.826Z,72.52
2022-09-21T03:44:33.373Z,73.36
2022-09-21T03:45:34.910Z,73.99
2022-09-21T03:46:36.509Z,74.35
2022-09-21T03:47:39.347Z,74.80
2022-09-21T03:48:42.522Z,74.97
2022-09-21T03:49:44.082Z,75.76
2022-09-21T03:50:45.636Z,75.24
2022-09-21T03:51:47.165Z,75.75
2022-09-21T03:52:49.051Z,75.74
2022-09-21T03:53:50.878Z,75.46
2022-09-21T03:54:52.663Z,74.70
2022-09-21T03:55:54.193Z,75.18
2022-09-21T03:56:55.731Z,76.16
2022-09-21T03:57:57.243Z,75.42
2022-09-21T03:58:58.769Z,75.43
2022-09-21T04:00:02.665Z,75.64
2022-09-21T04:01:04.376Z,75.52
2022-09-21T04:02:05.971Z,75.46
2022-09-21T04:03:07.556Z,75.14
2022-09-21T04:04:09.346Z,76.01
2022-09-21T04:05:14.704Z,76.09
2022-09-21T04:06:16.272Z,76.37
2022-09-21T04:07:17.801Z,74.95
2022-09-21T04:08:19.368Z,74.74
2022-09-21T04:09:20.928Z,75.78
2022-09-21T04:10:32.825Z,75.86
2022-09-21T04:11:34.422Z,76.18
2022-09-21T04:12:36.432Z,78.29
2022-09-21T04:13:37.989Z,86.64
2022-09-21T04:14:39.688Z,84.10
2022-09-21T04:15:41.730Z,87.69
2022-09-21T04:16:43.308Z,81.83
2022-09-21T04:17:45.736Z,78.38
2022-09-21T04:18:50.287Z,77.76
2022-09-21T04:19:51.799Z,77.42
2022-09-21T04:20:53.349Z,76.72
2022-09-21T04:21:56.053Z,75.84
2022-09-21T04:22:57.952Z,76.02
2022-09-21T04:24:00.267Z,75.72
2022-09-21T04:25:01.902Z,75.68
2022-09-21T04:26:03.526Z,75.21
2022-09-21T04:27:05.147Z,74.83
2022-09-21T04:28:06.747Z,74.66
2022-09-21T04:29:11.013Z,74.21
2022-09-21T04:30:14.340Z,73.38
2022-09-21T04:31:15.959Z,73.22
2022-09-21T04:32:17.600Z,72.96
2022-09-21T04:33:19.955Z,72.49
2022-09-21T04:34:21.430Z,72.64
2022-09-21T04:35:22.973Z,72.55
2022-09-21T04:36:30.298Z,71.75
2022-09-21T04:37:34.796Z,71.85
2022-09-21T04:38:36.321Z,71.97
2022-09-21T04:39:38.561Z,71.61
2022-09-21T04:40:40.100Z,71.79
2022-09-21T04:41:42.267Z,71.85
2022-09-21T04:42:43.821Z,71.15
2022-09-21T04:43:46.784Z,71.15
2022-09-21T04:44:48.282Z,71.37
2022-09-21T04:45:49.967Z,72.05
2022-09-21T04:46:51.555Z,72.34
2022-09-21T04:47:53.080Z,71.85
2022-09-21T04:48:54.737Z,72.32
2022-09-21T04:49:56.247Z,70.82
2022-09-21T04:50:58.100Z,70.54
2022-09-21T04:52:00.007Z,70.99
2022-09-21T04:53:01.505Z,70.98
2022-09-21T04:54:03.797Z,71.39
2022-09-21T04:55:06.004Z,72.20
2022-09-21T04:56:08.842Z,71.62
2022-09-21T04:57:10.344Z,72.92
2022-09-21T04:58:11.860Z,72.61
2022-09-21T04:59:13.404Z,72.75
2022-09-21T05:00:15.145Z,73.91
2022-09-21T05:01:16.796Z,74.00
2022-09-21T05:02:18.357Z,73.50
2022-09-21T05:03:20.063Z,73.41
2022-09-21T05:04:21.632Z,72.96
2022-09-21T05:05:23.165Z,73.82
2022-09-21T05:06:24.718Z,73.29
2022-09-21T05:07:26.246Z,73.20
2022-09-21T05:08:46.355Z,73.46
2022-09-21T05:10:02.830Z,72.87
2022-09-21T05:11:06.318Z,72.74
2022-09-21T05:12:07.816Z,72.09
2022-09-21T05:13:09.789Z,72.25
2022-09-21T05:14:12.599Z,72.67
2022-09-21T05:15:14.428Z,72.21
2022-09-21T05:16:17.272Z,71.81
2022-09-21T05:17:22.523Z,72.29
2022-09-21T05:18:24.049Z,72.84
2022-09-21T05:19:25.591Z,72.42
2022-09-21T05:20:27.140Z,72.33
2022-09-21T05:21:28.714Z,72.10
2022-09-21T05:22:30.231Z,72.68
2022-09-21T05:23:32.166Z,72.94
2022-09-21T05:24:33.919Z,73.68
2022-09-21T05:25:35.488Z,74.32
2022-09-21T05:26:37.435Z,74.04
2022-09-21T05:27:38.975Z,74.02
2022-09-21T05:28:40.873Z,73.78
2022-09-21T05:29:42.695Z,73.48
2022-09-21T05:31:01.442Z,74.06
2022-09-21T05:32:20.948Z,73.45
2022-09-21T05:33:24.389Z,74.40
2022-09-21T05:34:36.765Z,74.64
2022-09-21T05:35:48.169Z,75.49
2022-09-21T05:37:04.136Z,75.44
2022-09-21T05:38:12.752Z,74.54
2022-09-21T05:39:14.622Z,75.04
2022-09-21T05:40:16.641Z,75.43
2022-09-21T05:41:18.468Z,75.02
2022-09-21T05:42:20.236Z,74.63
2022-09-21T05:43:21.965Z,74.51
2022-09-21T05:44:24.231Z,74.58
2022-09-21T05:45:26.705Z,74.24
2022-09-21T05:46:37.128Z,74.27
2022-09-21T05:47:47.608Z,73.94
2022-09-21T05:49:01.092Z,73.92
2022-09-21T05:50:21.411Z,75.18
2022-09-21T05:51:40.997Z,75.82
2022-09-21T05:53:11.844Z,75.95
2022-09-21T05:54:23.669Z,76.32
2022-09-21T05:55:41.489Z,75.79
2022-09-21T05:56:56.160Z,74.70
2022-09-21T05:58:35.038Z,74.73
2022-09-21T05:59:41.340Z,74.39
2022-09-21T06:01:05.872Z,74.70
2022-09-21T06:02:29.077Z,73.49
2022-09-21T06:03:32.416Z,74.02
2022-09-21T06:04:34.456Z,72.59
2022-09-21T06:05:36.171Z,71.32
2022-09-21T06:06:37.736Z,71.39
2022-09-21T06:07:39.351Z,70.87
2022-09-21T06:08:40.872Z,70.81
2022-09-21T06:09:43.334Z,69.26
2022-09-21T06:10:45.382Z,69.25
2022-09-21T06:11:47.701Z,69.49
2022-09-21T06:12:49.301Z,68.96
2022-09-21T06:13:50.820Z,68.34
2022-09-21T06:14:52.301Z,67.63
2022-09-21T06:15:53.928Z,66.38
2022-09-21T06:16:55.582Z,65.60
2022-09-21T06:17:59.175Z,65.92
2022-09-21T06:19:00.695Z,65.73
2022-09-21T06:20:03.282Z,64.35
2022-09-21T06:21:05.057Z,63.00
2022-09-21T06:22:06.589Z,72.96
2022-09-21T06:23:11.447Z,72.58
2022-09-21T06:24:13.047Z,65.43
2022-09-21T06:25:14.641Z,60.02
2022-09-21T06:26:17.693Z,60.14
2022-09-21T06:27:19.264Z,60.28
2022-09-21T06:28:20.966Z,60.30
2022-09-21T06:29:23.716Z,60.42
2022-09-21T06:30:25.431Z,59.91
2022-09-21T06:31:28.016Z,58.30
2022-09-21T06:32:29.549Z,57.69
2022-09-21T06:33:31.133Z,58.20
2022-09-21T06:34:35.441Z,57.87
2022-09-21T06:35:37.473Z,57.23
2022-09-21T06:36:39.001Z,57.00
2022-09-21T06:37:41.980Z,57.99
2022-09-21T06:38:43.542Z,57.43
2022-09-21T06:39:45.156Z,57.09
2022-09-21T06:40:46.711Z,58.83
2022-09-21T06:41:48.348Z,58.49
2022-09-21T06:42:49.884Z,58.18
2022-09-21T06:43:55.223Z,58.22
2022-09-21T06:44:56.844Z,58.45
2022-09-21T06:46:00.588Z,59.84
2022-09-21T06:47:02.158Z,58.88
2022-09-21T06:48:03.805Z,58.25
2022-09-21T06:49:05.743Z,58.95
2022-09-21T06:50:07.679Z,58.49
2022-09-21T06:51:10.000Z,58.73
2022-09-21T06:52:11.550Z,59.55
2022-09-21T06:53:14.022Z,58.58
2022-09-21T06:54:15.608Z,57.52
2022-09-21T06:55:17.290Z,56.36
2022-09-21T06:56:18.817Z,58.57
2022-09-21T06:57:20.328Z,58.41
2022-09-21T06:58:21.840Z,59.04
2022-09-21T06:59:23.484Z,57.23
2022-09-21T07:00:25.043Z,56.87
2022-09-21T07:01:26.987Z,57.58
2022-09-21T07:02:28.582Z,56.57
2022-09-21T07:03:30.090Z,56.36
2022-09-21T07:04:32.132Z,55.77
2022-09-21T07:05:34.244Z,55.41
2022-09-21T07:06:35.901Z,55.39
2022-09-21T07:07:37.499Z,55.45
2022-09-21T07:10:05.817Z,56.03
2022-09-21T07:11:08.224Z,51.35
2022-09-21T07:12:09.995Z,50.72
2022-09-21T07:13:11.540Z,50.39
2022-09-21T07:14:14.881Z,49.91
2022-09-21T07:15:16.520Z,49.75
2022-09-21T07:16:19.555Z,49.20
2022-09-21T07:17:21.548Z,48.10
2022-09-21T07:18:23.805Z,48.41
2022-09-21T07:19:25.739Z,49.31
2022-09-21T07:20:27.286Z,47.67
2022-09-21T07:21:29.024Z,48.39
2022-09-21T07:22:32.311Z,47.87
2022-09-21T07:23:34.111Z,48.58
2022-09-21T07:24:35.615Z,48.62
2022-09-21T07:25:37.582Z,48.05
2022-09-21T07:26:39.401Z,48.37
2022-09-21T07:27:41.094Z,48.30
2022-09-21T07:28:42.708Z,48.66
2022-09-21T07:29:44.381Z,48.09
2022-09-21T07:30:45.983Z,48.04
2022-09-21T07:31:48.466Z,48.38
2022-09-21T07:32:50.071Z,48.67
2022-09-21T07:33:57.721Z,49.36
2022-09-21T07:34:59.259Z,49.83
2022-09-21T07:36:01.099Z,49.94
2022-09-21T07:37:03.724Z,49.88
2022-09-21T07:38:08.411Z,49.94
2022-09-21T07:39:10.656Z,49.93
2022-09-21T07:40:12.229Z,49.95
2022-09-21T07:41:14.612Z,49.89
2022-09-21T07:42:16.519Z,50.54
2022-09-21T07:43:18.026Z,50.66
2022-09-21T07:44:20.530Z,50.85
2022-09-21T07:45:22.074Z,51.73
2022-09-21T07:46:23.952Z,51.52
2022-09-21T07:47:25.694Z,52.20
2022-09-21T07:48:27.457Z,52.38
2022-09-21T07:49:29.232Z,52.37
2022-09-21T07:50:32.010Z,52.88
2022-09-21T07:51:33.640Z,52.34
2022-09-21T07:52:35.425Z,52.23
2022-09-21T07:53:38.679Z,52.97
2022-09-21T07:54:40.434Z,53.06
2022-09-21T07:55:42.166Z,53.16
2022-09-21T07:57:03.753Z,53.14
2022-09-21T07:58:23.681Z,52.69
2022-09-21T07:59:25.215Z,52.99
2022-09-21T08:00:29.213Z,53.61
2022-09-21T08:01:31.145Z,53.21
2022-09-21T08:02:32.761Z,53.26
2022-09-21T08:03:34.346Z,54.18
2022-09-21T08:04:35.993Z,54.74
2022-09-21T08:05:37.509Z,53.79
2022-09-21T08:06:40.136Z,55.03
2022-09-21T08:07:42.006Z,55.32
2022-09-21T08:08:43.675Z,55.01
2022-09-21T08:09:49.232Z,54.90
2022-09-21T08:10:53.046Z,54.48
2022-09-21T08:11:54.971Z,55.61
2022-09-21T08:12:57.240Z,54.93
2022-09-21T08:14:03.432Z,55.33
2022-09-21T08:15:05.833Z,55.31
2022-09-21T08:16:07.459Z,54.85
2022-09-21T08:17:08.997Z,54.38
2022-09-21T08:18:10.722Z,54.17
2022-09-21T08:19:12.622Z,52.88
2022-09-21T08:20:14.228Z,52.35
2022-09-21T08:21:15.808Z,52.83
2022-09-21T08:22:17.321Z,52.47
2022-09-21T08:23:18.932Z,52.10
2022-09-21T08:24:20.566Z,52.81
2022-09-21T08:25:23.793Z,51.72
2022-09-21T08:26:25.408Z,51.15
2022-09-21T08:27:26.939Z,50.79
2022-09-21T08:28:30.368Z,50.57
2022-09-21T08:29:31.913Z,49.50
2022-09-21T08:30:34.189Z,50.07
2022-09-21T08:31:35.763Z,50.07
2022-09-21T08:32:50.343Z,49.76
2022-09-21T08:33:52.903Z,49.17
2022-09-21T08:34:54.452Z,49.59
2022-09-21T08:35:58.499Z,51.06
2022-09-21T08:37:00.353Z,50.61
2022-09-21T08:38:01.974Z,50.22
2022-09-21T08:39:07.233Z,50.46
2022-09-21T08:40:10.739Z,50.67
2022-09-21T08:41:25.449Z,50.26
2022-09-21T08:42:50.593Z,49.99
2022-09-21T08:43:58.108Z,50.21
2022-09-21T08:45:05.167Z,50.42
2022-09-21T08:46:13.237Z,50.60
2022-09-21T08:47:28.732Z,50.44
2022-09-21T08:48:36.810Z,50.70
2022-09-21T08:49:41.170Z,50.32
2022-09-21T08:50:48.539Z,51.15
2022-09-21T08:51:56.448Z,49.84
2022-09-21T08:53:04.134Z,49.62
2022-09-21T08:54:16.865Z,50.10
2022-09-21T08:55:20.782Z,50.57
2022-09-21T08:56:37.065Z,50.99
2022-09-21T08:57:48.154Z,50.20
2022-09-21T08:58:49.814Z,49.90
2022-09-21T08:59:51.829Z,50.08
2022-09-21T09:01:07.198Z,49.53
2022-09-21T09:02:38.426Z,49.23
2022-09-21T09:03:46.063Z,48.64
2022-09-21T09:05:03.411Z,48.89
2022-09-21T09:06:13.736Z,49.77
2022-09-21T09:08:10.584Z,48.64
2022-09-21T09:09:28.586Z,49.22
2022-09-21T09:10:41.447Z,48.65
2022-09-21T09:12:10.070Z,48.52
2022-09-21T09:13:33.855Z,49.06
2022-09-21T09:15:00.208Z,47.99
2022-09-21T09:16:24.983Z,47.80
2022-09-21T09:17:29.569Z,47.40
2022-09-21T09:19:02.918Z,47.09
2022-09-21T09:20:16.126Z,47.51
2022-09-21T09:21:31.153Z,47.67
2022-09-21T09:22:53.845Z,47.71
2022-09-21T09:24:06.660Z,47.33
2022-09-21T09:25:24.570Z,47.59
2022-09-21T09:26:43.109Z,46.78
2022-09-21T09:27:46.825Z,46.41
2022-09-21T09:29:26.864Z,46.23
2022-09-21T09:30:34.578Z,47.23
2022-09-21T09:31:37.997Z,46.85
2022-09-21T09:32:44.181Z,44.84
2022-09-21T09:34:01.021Z,45.05
2022-09-21T09:35:42.860Z,44.56
2022-09-21T09:36:58.238Z,45.26
2022-09-21T09:38:28.690Z,45.02
2022-09-21T09:39:30.990Z,45.57
2022-09-21T09:40:56.475Z,45.65
2022-09-21T09:42:07.007Z,43.77
2022-09-21T09:43:33.518Z,43.01
2022-09-21T09:44:52.292Z,42.92
2022-09-21T09:46:01.609Z,41.18
2022-09-21T09:47:12.325Z,41.95
2022-09-21T09:48:31.303Z,42.54
2022-09-21T09:49:42.039Z,42.90
2022-09-21T09:50:44.133Z,41.63
2022-09-21T09:51:46.675Z,43.07
2022-09-21T09:52:54.294Z,41.28
2022-09-21T09:54:00.852Z,41.29
2022-09-21T09:55:25.920Z,42.60
2022-09-21T09:56:27.823Z,42.07
2022-09-21T09:57:33.079Z,41.76
2022-09-21T09:58:41.691Z,42.13
2022-09-21T09:59:54.845Z,43.34
2022-09-21T10:00:58.777Z,42.80
2022-09-21T10:02:26.511Z,42.37
2022-09-21T10:03:28.881Z,41.86
2022-09-21T10:04:30.708Z,42.00
2022-09-21T10:05:34.572Z,42.25
2022-09-21T10:06:36.806Z,42.65
2022-09-21T10:07:41.554Z,42.09
2022-09-21T10:08:47.266Z,40.96
2022-09-21T10:09:48.811Z,41.46
2022-09-21T10:10:50.401Z,41.26
2022-09-21T10:11:55.015Z,40.92
2022-09-21T10:13:12.974Z,40.28
2022-09-21T10:14:21.389Z,40.33
2022-09-21T10:15:26.166Z,40.69
2022-09-21T10:16:27.835Z,38.46
2022-09-21T10:17:29.513Z,39.70
2022-09-21T10:18:46.499Z,40.93
2022-09-21T10:19:48.373Z,39.55
2022-09-21T10:21:02.901Z,39.80
2022-09-21T10:22:05.439Z,39.92
2022-09-21T10:23:12.636Z,39.38
2022-09-21T10:24:18.779Z,40.00
2022-09-21T10:25:21.076Z,40.41
2022-09-21T10:26:22.887Z,40.33
2022-09-21T10:27:28.642Z,40.00
2022-09-21T10:28:30.959Z,40.34
2022-09-21T10:29:43.752Z,40.00
2022-09-21T10:30:45.527Z,39.60
2022-09-21T10:32:17.914Z,40.15
2022-09-21T10:33:21.605Z,39.03
2022-09-21T10:34:24.225Z,38.77
2022-09-21T10:35:27.098Z,39.22
2022-09-21T10:36:36.756Z,38.62
2022-09-21T10:37:41.130Z,38.61
2022-09-21T10:38:43.118Z,38.12
2022-09-21T10:39:47.544Z,39.00
2022-09-21T10:40:49.453Z,38.88
2022-09-21T10:41:54.871Z,39.91
2022-09-21T10:43:00.457Z,40.24
2022-09-21T10:44:02.090Z,41.11
2022-09-21T10:45:16.179Z,40.78
2022-09-21T10:46:32.134Z,40.02
2022-09-21T10:47:41.023Z,39.83
2022-09-21T10:48:46.076Z,40.08
2022-09-21T10:49:53.807Z,39.57
2022-09-21T10:50:56.567Z,40.67
2022-09-21T10:51:59.428Z,40.85
2022-09-21T10:53:10.598Z,40.49
2022-09-21T10:54:19.576Z,40.50
2022-09-21T10:55:23.560Z,41.51
2022-09-21T10:56:25.289Z,41.89
2022-09-21T10:57:29.676Z,42.21
2022-09-21T10:58:32.447Z,42.00
2022-09-21T10:59:37.188Z,42.42
2022-09-21T11:00:45.082Z,42.72
2022-09-21T11:01:52.466Z,42.14
2022-09-21T11:02:55.469Z,41.79
2022-09-21T11:04:11.869Z,42.01
2022-09-21T11:05:31.518Z,42.37
2022-09-21T11:07:05.163Z,42.53
2022-09-21T11:08:23.616Z,41.94
2022-09-21T11:09:32.924Z,41.88
2022-09-21T11:10:46.258Z,41.75
2022-09-21T11:12:20.902Z,41.87
2022-09-21T11:13:38.704Z,41.74
2022-09-21T11:14:40.177Z,42.28
2022-09-21T11:15:58.414Z,42.39
2022-09-21T11:17:03.525Z,42.20
2022-09-21T11:18:28.832Z,41.88
2022-09-21T11:19:54.377Z,42.35
2022-09-21T11:21:09.317Z,41.29
2022-09-21T11:22:34.858Z,42.22
2022-09-21T11:23:50.095Z,40.86
2022-09-21T11:25:19.053Z,39.63
2022-09-21T11:26:45.596Z,40.03
2022-09-21T11:28:14.109Z,40.10
2022-09-21T11:30:49.469Z,41.24
2022-09-21T11:32:10.356Z,39.57
2022-09-21T11:33:55.683Z,40.17
2022-09-21T11:35:00.238Z,39.90
2022-09-21T11:36:19.701Z,39.38
2022-09-21T11:37:39.188Z,39.08
2022-09-21T11:38:57.161Z,38.94
2022-09-21T11:40:27.905Z,39.34
2022-09-21T11:41:44.385Z,38.29
2022-09-21T11:42:56.937Z,38.72
2022-09-21T11:44:22.924Z,38.45
2022-09-21T11:45:46.141Z,38.10
2022-09-21T11:47:00.332Z,38.47
2022-09-21T11:48:28.174Z,38.23
2022-09-21T11:49:47.852Z,39.20
2022-09-21T11:51:02.524Z,39.67
2022-09-21T11:52:34.614Z,39.99
2022-09-21T11:53:57.823Z,40.30
2022-09-21T11:55:23.459Z,40.92
2022-09-21T11:56:39.492Z,40.64
2022-09-21T11:57:59.670Z,40.43
2022-09-21T11:59:30.225Z,40.70
2022-09-21T12:00:44.336Z,40.66
2022-09-21T12:02:22.088Z,40.89
2022-09-21T12:03:42.151Z,40.24
2022-09-21T12:04:48.825Z,40.73
2022-09-21T12:05:59.406Z,40.05
2022-09-21T12:07:03.943Z,40.25
2022-09-21T12:08:17.846Z,39.91
2022-09-21T12:09:45.720Z,39.46
2022-09-21T12:11:18.029Z,39.67
2022-09-21T12:12:24.125Z,39.66
2022-09-21T12:13:50.564Z,39.55
2022-09-21T12:15:27.822Z,40.23
2022-09-21T12:17:05.717Z,40.87
2022-09-21T12:18:34.353Z,40.77
2022-09-21T12:19:38.768Z,41.08
2022-09-21T12:20:49.391Z,40.71
2022-09-21T12:21:58.680Z,40.96
2022-09-21T12:23:04.695Z,40.84
2022-09-21T12:24:21.103Z,40.56
2022-09-21T12:25:32.245Z,40.66
2022-09-21T12:26:41.645Z,41.22
2022-09-21T12:27:49.426Z,40.78
2022-09-21T12:28:59.126Z,40.92
2022-09-21T12:30:21.518Z,40.87
2022-09-21T12:31:33.288Z,40.96
2022-09-21T12:32:56.754Z,41.02
2022-09-21T12:34:04.418Z,40.92
2022-09-21T12:35:12.725Z,40.71
2022-09-21T12:36:20.510Z,40.40
2022-09-21T12:37:32.737Z,40.84
2022-09-21T12:38:40.944Z,40.34
2022-09-21T12:39:59.394Z,39.94
2022-09-21T12:41:16.041Z,39.40
2022-09-21T12:42:35.070Z,39.55
2022-09-21T12:43:39.692Z,39.84
2022-09-21T12:44:52.377Z,39.82
2022-09-21T12:46:03.518Z,39.67
2022-09-21T12:47:11.495Z,39.76
2022-09-21T12:48:31.778Z,40.03
2022-09-21T12:49:33.555Z,39.74
2022-09-21T12:50:44.434Z,40.37
2022-09-21T12:51:54.503Z,40.53
2022-09-21T12:52:57.438Z,39.99
2022-09-21T12:54:07.907Z,39.97
2022-09-21T12:55:17.492Z,40.06
2022-09-21T12:56:28.862Z,39.63
2022-09-21T12:57:53.719Z,40.19
2022-09-21T12:59:21.805Z,39.78
2022-09-21T13:00:28.062Z,39.33
2022-09-21T13:01:35.691Z,39.19
2022-09-21T13:04:00.857Z,38.50
2022-09-21T13:05:32.171Z,39.08
2022-09-21T13:06:45.840Z,39.11
2022-09-21T13:08:03.735Z,38.63
2022-09-21T13:09:09.956Z,39.56
2022-09-21T13:10:28.158Z,39.86
2022-09-21T13:11:33.081Z,38.77
2022-09-21T13:12:44.298Z,37.67
2022-09-21T13:13:52.992Z,37.91
2022-09-21T13:15:29.685Z,38.05
2022-09-21T13:16:39.483Z,37.75
2022-09-21T13:17:41.178Z,38.03
2022-09-21T13:18:42.915Z,37.96
2022-09-21T13:19:44.672Z,38.64
2022-09-21T13:20:46.417Z,39.11
2022-09-21T13:22:21.047Z,38.39
2022-09-21T13:23:26.848Z,38.82
2022-09-21T13:24:30.653Z,38.95
2022-09-21T13:25:37.866Z,38.78
2022-09-21T13:26:42.524Z,39.48
2022-09-21T13:28:13.146Z,39.71
2022-09-21T13:29:17.351Z,39.50
2022-09-21T13:30:32.107Z,39.83
2022-09-21T13:31:52.989Z,39.51
2022-09-21T13:32:54.760Z,39.47
2022-09-21T13:34:08.801Z,39.43
2022-09-21T13:35:50.844Z,39.70
2022-09-21T13:37:14.603Z,39.61
2022-09-21T13:38:27.546Z,39.66
2022-09-21T13:39:29.101Z,40.23
2022-09-21T13:40:35.435Z,39.44
2022-09-21T13:41:58.944Z,40.10
2022-09-21T13:43:16.865Z,39.58
2022-09-21T13:44:18.497Z,38.72
2022-09-21T13:45:21.237Z,40.23
2022-09-21T13:46:34.987Z,40.00
2022-09-21T13:47:39.382Z,39.05
2022-09-21T13:48:40.951Z,38.59
2022-09-21T13:49:46.974Z,38.72
2022-09-21T13:50:49.330Z,39.06
2022-09-21T13:52:08.171Z,39.41
2022-09-21T13:53:38.376Z,39.48
2022-09-21T13:54:39.955Z,39.52
2022-09-21T13:55:50.804Z,39.63
2022-09-21T13:57:09.021Z,38.81
2022-09-21T13:58:32.180Z,39.11
2022-09-21T13:59:35.510Z,39.37
2022-09-21T14:00:41.975Z,38.57
2022-09-21T14:01:47.833Z,38.83
2022-09-21T14:02:54.750Z,38.93
2022-09-21T14:04:17.283Z,39.57
2022-09-21T14:05:43.720Z,38.32
2022-09-21T14:06:48.747Z,38.95
2022-09-21T14:08:00.307Z,38.74
2022-09-21T14:09:08.968Z,38.79
2022-09-21T14:10:22.521Z,38.49
2022-09-21T14:11:37.358Z,38.66
2022-09-21T14:12:45.547Z,38.78
2022-09-21T14:14:02.938Z,38.61
2022-09-21T14:15:13.682Z,39.32
2022-09-21T14:16:39.588Z,39.25
2022-09-21T14:17:41.288Z,39.28
2022-09-21T14:18:48.343Z,39.31
2022-09-21T14:19:49.809Z,39.50
2022-09-21T14:21:07.119Z,40.01
2022-09-21T14:22:08.918Z,40.54
2022-09-21T14:23:26.432Z,40.41
2022-09-21T14:24:41.720Z,40.83
2022-09-21T14:25:54.521Z,41.24
2022-09-21T14:27:03.575Z,41.56
2022-09-21T14:28:10.993Z,42.26
2022-09-21T14:29:44.663Z,42.42
2022-09-21T14:30:58.274Z,43.13
2022-09-21T14:32:02.989Z,42.80
2022-09-21T14:33:18.592Z,42.72
2022-09-21T14:34:24.671Z,42.82
2022-09-21T14:35:47.500Z,43.11
2022-09-21T14:36:53.782Z,43.17
2022-09-21T14:38:00.004Z,42.97
2022-09-21T14:39:05.722Z,42.71
2022-09-21T14:40:20.364Z,42.69
2022-09-21T14:41:24.524Z,42.43